Algiers, Louisiana
Current Conditions -  °F | °C
As of 6:15 PM on Wednesday 22 Oct 2014 (Local Time) from KVSH Reporting Station
Clear Clear  
Wind Chill: 24°   Ceiling: Unl
Heat Index: 24°   Visibility: 10mi
Dew Point: 11°   Wind: 6mph
Humidity: 44%   Direction: 90°E
Pressure: 30.04"   Gusts: NA
Location:  29.935°N, 90.0314°W
Report Text: KVSH 222315Z AUTO 09005KT 10SM CLR 24/11 A3004 RMK AO1
Loading
Personal Weather Stations






























Interactive Weather Map
Tropical Storm Tracking
New forecast layout! Learn more

10-Day Weather Forecast

Advertisements
Track Severe Weather on mobile